Time;durP1;ratioP1;P1;durP2;ratioP2;P2;SDS_P1;SDS_P2;PMS_P1;PMS_P2;Temp;Humidity;BMP_temperature;BMP_pressure;BME280_temperature;BME280_humidity;BME280_pressure;Samples;Min_cycle;Max_cycle;Signal;HPM_P1;HPM_P2
2023/05/09 00:00:21;;;;;;;35.28;18.90;;;;;;;;;;5047687;28;20025;-74
2023/05/09 00:02:46;;;;;;;41.20;20.05;;;;;;;;;;5048734;28;20037;-74
2023/05/09 00:05:13;;;;;;;37.58;19.13;;;;;;;;;;5045640;28;20017;-74
2023/05/09 00:07:39;;;;;;;33.83;18.13;;;;;;;;;;5044510;28;20366;-74
2023/05/09 00:10:05;;;;;;;33.63;17.55;;;;;;;;;;5041163;28;20039;-73
2023/05/09 00:12:30;;;;;;;37.25;19.00;;;;;;;;;;5045078;28;20788;-74
2023/05/09 00:14:55;;;;;;;33.35;17.67;;;;;;;;;;5048376;28;20087;-73
2023/05/09 00:17:25;;;;;;;38.47;19.20;;;;;;;;;;5050058;28;20035;-74
2023/05/09 00:19:51;;;;;;;35.25;18.00;;;;;;;;;;5045143;28;20382;-74
2023/05/09 00:22:20;;;;;;;37.80;18.58;;;;;;;;;;5044338;28;20048;-73
2023/05/09 00:24:45;;;;;;;35.40;18.70;;;;;;;;;;5050519;28;20082;-74
2023/05/09 00:27:11;;;;;;;35.67;18.63;;;;;;;;;;5052007;28;20020;-74
2023/05/09 00:29:36;;;;;;;34.35;17.92;;;;;;;;;;5062811;28;20030;-74
2023/05/09 00:32:01;;;;;;;36.38;18.25;;;;;;;;;;5049327;28;20024;-74
2023/05/09 00:34:26;;;;;;;34.13;18.60;;;;;;;;;;5046629;28;20028;-74
2023/05/09 00:36:52;;;;;;;34.78;18.13;;;;;;;;;;5048011;28;20020;-74
2023/05/09 00:39:17;;;;;;;31.95;17.02;;;;;;;;;;5044242;28;20563;-74
2023/05/09 00:41:43;;;;;;;35.45;18.67;;;;;;;;;;5049335;28;20033;-74
2023/05/09 00:44:08;;;;;;;35.80;18.00;;;;;;;;;;5049202;28;20025;-74
2023/05/09 00:46:34;;;;;;;34.90;17.98;;;;;;;;;;5051261;28;20032;-74
2023/05/09 00:48:59;;;;;;;33.05;17.55;;;;;;;;;;5054046;28;20036;-74
2023/05/09 00:51:27;;;;;;;32.22;17.40;;;;;;;;;;5050256;28;20500;-73
2023/05/09 00:53:52;;;;;;;32.00;17.35;;;;;;;;;;5053689;28;20362;-73
2023/05/09 00:56:18;;;;;;;30.77;16.88;;;;;;;;;;5042887;28;20028;-73
2023/05/09 00:58:44;;;;;;;29.75;16.48;;;;;;;;;;5051482;28;20021;-73
2023/05/09 01:01:10;;;;;;;32.03;17.23;;;;;;;;;;5044369;28;20032;-74
2023/05/09 01:03:37;;;;;;;26.67;15.68;;;;;;;;;;5049566;28;20032;-74
2023/05/09 01:06:13;;;;;;;30.80;16.65;;;;;;;;;;5043092;28;20469;-74
2023/05/09 01:09:16;;;;;;;26.30;15.07;;;;;;;;;;5048959;28;20033;-74
2023/05/09 01:11:51;;;;;;;28.63;15.35;;;;;;;;;;5046792;28;20123;-74
2023/05/09 01:14:47;;;;;;;26.40;14.32;;;;;;;;;;5066945;28;20433;-74
2023/05/09 01:17:22;;;;;;;26.10;15.35;;;;;;;;;;5048599;28;20037;-74
2023/05/09 01:20:14;;;;;;;24.65;13.75;;;;;;;;;;5046555;28;20013;-73
2023/05/09 01:22:47;;;;;;;24.80;13.57;;;;;;;;;;5026367;28;20060;-74
2023/05/09 01:25:37;;;;;;;24.35;14.10;;;;;;;;;;5049358;28;20031;-74
2023/05/09 01:28:21;;;;;;;23.58;13.25;;;;;;;;;;5049689;28;20120;-74
2023/05/09 01:30:49;;;;;;;24.08;13.30;;;;;;;;;;5044840;28;20036;-74
2023/05/09 01:33:18;;;;;;;19.67;11.88;;;;;;;;;;5047882;28;20082;-73
2023/05/09 01:35:49;;;;;;;19.92;12.15;;;;;;;;;;5042959;28;20025;-74
2023/05/09 01:38:18;;;;;;;23.70;13.05;;;;;;;;;;5046262;28;20474;-74
2023/05/09 01:40:47;;;;;;;19.48;11.95;;;;;;;;;;5045983;28;20489;-73
2023/05/09 01:43:15;;;;;;;19.05;11.07;;;;;;;;;;5047168;28;20493;-73
2023/05/09 01:45:42;;;;;;;21.58;11.88;;;;;;;;;;5038617;28;20094;-74
2023/05/09 01:48:08;;;;;;;19.75;11.32;;;;;;;;;;5041136;28;20032;-74
2023/05/09 01:50:34;;;;;;;17.85;11.65;;;;;;;;;;5038820;28;20083;-73
2023/05/09 01:53:00;;;;;;;19.70;10.98;;;;;;;;;;5045661;28;20028;-74
2023/05/09 01:55:29;;;;;;;21.20;11.77;;;;;;;;;;5043159;28;20030;-74
2023/05/09 01:57:56;;;;;;;18.58;11.00;;;;;;;;;;5045564;28;20016;-73
2023/05/09 02:00:23;;;;;;;18.27;11.38;;;;;;;;;;5047292;28;21391;-74
2023/05/09 02:02:49;;;;;;;17.85;10.93;;;;;;;;;;5041029;28;20032;-74
2023/05/09 02:05:16;;;;;;;19.60;10.82;;;;;;;;;;5042638;28;20039;-73
2023/05/09 02:07:41;;;;;;;18.00;11.30;;;;;;;;;;5049704;28;20025;-74
2023/05/09 02:10:09;;;;;;;19.42;10.60;;;;;;;;;;5046991;28;20025;-73
2023/05/09 02:12:34;;;;;;;20.95;12.15;;;;;;;;;;5048437;28;20102;-74
2023/05/09 02:15:00;;;;;;;17.08;10.07;;;;;;;;;;5048600;28;20056;-73
2023/05/09 02:17:29;;;;;;;18.95;10.70;;;;;;;;;;5042222;28;20032;-75
2023/05/09 02:19:55;;;;;;;18.55;10.68;;;;;;;;;;5059804;28;20028;-74
2023/05/09 02:22:20;;;;;;;18.50;10.80;;;;;;;;;;5046623;28;20370;-73
2023/05/09 02:24:46;;;;;;;17.38;11.15;;;;;;;;;;5042017;28;20063;-74
2023/05/09 02:27:12;;;;;;;20.30;11.23;;;;;;;;;;5038356;28;20443;-73
2023/05/09 02:29:43;;;;;;;16.88;10.13;;;;;;;;;;5038680;28;20040;-74
2023/05/09 02:32:12;;;;;;;17.90;10.98;;;;;;;;;;5042137;28;20025;-74
2023/05/09 02:34:39;;;;;;;17.30;10.05;;;;;;;;;;5045177;28;20021;-74
2023/05/09 02:37:06;;;;;;;17.58;10.38;;;;;;;;;;5043740;28;20025;-74
2023/05/09 02:39:32;;;;;;;17.15;9.93;;;;;;;;;;5047835;28;20473;-74
2023/05/09 02:42:07;;;;;;;17.35;10.32;;;;;;;;;;5037760;28;20041;-74
2023/05/09 02:44:33;;;;;;;17.30;10.10;;;;;;;;;;5045480;28;20032;-73
2023/05/09 02:47:00;;;;;;;17.00;10.70;;;;;;;;;;5049957;28;20033;-74
2023/05/09 02:49:25;;;;;;;17.05;11.55;;;;;;;;;;5047356;28;20037;-73
2023/05/09 02:51:51;;;;;;;17.33;10.40;;;;;;;;;;5043839;28;20037;-73
2023/05/09 02:54:17;;;;;;;16.95;10.52;;;;;;;;;;5048169;28;20546;-74
2023/05/09 02:56:42;;;;;;;16.67;10.50;;;;;;;;;;5045937;28;20035;-74
2023/05/09 02:59:07;;;;;;;17.40;10.45;;;;;;;;;;5047996;28;20009;-74
2023/05/09 03:01:33;;;;;;;16.92;10.65;;;;;;;;;;5042465;28;20457;-74
2023/05/09 03:03:58;;;;;;;18.65;10.15;;;;;;;;;;5049976;28;20029;-73
2023/05/09 03:06:23;;;;;;;16.13;9.70;;;;;;;;;;5047018;28;20103;-73
2023/05/09 03:08:49;;;;;;;16.83;9.98;;;;;;;;;;5044471;28;20052;-74
2023/05/09 03:11:14;;;;;;;16.88;10.00;;;;;;;;;;5047825;28;20056;-73
2023/05/09 03:13:40;;;;;;;15.43;9.95;;;;;;;;;;5048126;28;20037;-74
2023/05/09 03:16:05;;;;;;;16.25;9.98;;;;;;;;;;5051129;28;20036;-74
2023/05/09 03:18:31;;;;;;;16.38;9.88;;;;;;;;;;5048431;28;20025;-73
2023/05/09 03:20:56;;;;;;;16.55;10.00;;;;;;;;;;5048688;28;20115;-73
2023/05/09 03:23:22;;;;;;;17.45;9.98;;;;;;;;;;5049327;28;20021;-73
2023/05/09 03:25:47;;;;;;;16.80;10.57;;;;;;;;;;5041515;28;20435;-73
2023/05/09 03:28:13;;;;;;;16.60;10.60;;;;;;;;;;5045423;28;20021;-74
2023/05/09 03:30:38;;;;;;;15.23;10.02;;;;;;;;;;5045521;28;20552;-74
2023/05/09 03:33:03;;;;;;;15.70;10.18;;;;;;;;;;5037016;28;20120;-74
2023/05/09 03:35:29;;;;;;;18.80;10.15;;;;;;;;;;5037116;28;20047;-74
2023/05/09 03:37:54;;;;;;;15.95;10.15;;;;;;;;;;5044723;28;20021;-73
2023/05/09 03:40:20;;;;;;;18.00;10.75;;;;;;;;;;5028473;28;20135;-73
2023/05/09 03:42:45;;;;;;;18.48;11.32;;;;;;;;;;5038473;28;20116;-73
2023/05/09 03:45:11;;;;;;;16.52;9.85;;;;;;;;;;5045141;28;20031;-74
2023/05/09 03:47:36;;;;;;;16.92;10.25;;;;;;;;;;5044055;28;20029;-73
2023/05/09 03:50:03;;;;;;;17.05;10.25;;;;;;;;;;5047248;28;20033;-74
2023/05/09 03:52:28;;;;;;;16.27;9.27;;;;;;;;;;5049177;28;20040;-74
2023/05/09 03:54:53;;;;;;;15.52;9.80;;;;;;;;;;5045170;28;20077;-74
2023/05/09 03:57:19;;;;;;;17.25;9.77;;;;;;;;;;5049358;28;20040;-73
2023/05/09 03:59:44;;;;;;;14.73;9.88;;;;;;;;;;5040520;28;20497;-73
2023/05/09 04:02:10;;;;;;;15.55;10.00;;;;;;;;;;5044716;28;20040;-74
2023/05/09 04:04:35;;;;;;;16.70;9.57;;;;;;;;;;5039831;28;20521;-74
2023/05/09 04:07:01;;;;;;;15.75;10.10;;;;;;;;;;5050642;28;20043;-75
2023/05/09 04:09:27;;;;;;;16.30;10.68;;;;;;;;;;5038423;28;20061;-73
2023/05/09 04:11:53;;;;;;;16.63;9.95;;;;;;;;;;5037120;28;20029;-74
2023/05/09 04:14:18;;;;;;;16.48;10.75;;;;;;;;;;5045634;28;20025;-73
2023/05/09 04:16:43;;;;;;;16.40;9.90;;;;;;;;;;5049163;28;20473;-73
2023/05/09 04:19:08;;;;;;;16.60;10.43;;;;;;;;;;5043991;28;20017;-73
2023/05/09 04:21:34;;;;;;;16.80;10.10;;;;;;;;;;5053018;28;20017;-73
2023/05/09 04:23:59;;;;;;;15.27;10.10;;;;;;;;;;5050257;28;20507;-73
2023/05/09 04:26:25;;;;;;;17.05;10.18;;;;;;;;;;5044036;28;20029;-74
2023/05/09 04:28:51;;;;;;;15.18;9.80;;;;;;;;;;5049539;28;20025;-74
2023/05/09 04:31:18;;;;;;;18.65;10.52;;;;;;;;;;5042572;28;20138;-74
2023/05/09 04:33:43;;;;;;;14.88;10.35;;;;;;;;;;5047484;28;20029;-74
2023/05/09 04:36:09;;;;;;;17.45;10.05;;;;;;;;;;5036670;28;20036;-73
2023/05/09 04:38:34;;;;;;;16.83;11.02;;;;;;;;;;5048800;28;20017;-74
2023/05/09 04:41:00;;;;;;;17.38;10.70;;;;;;;;;;5048025;28;20028;-74
2023/05/09 04:43:26;;;;;;;18.58;10.52;;;;;;;;;;5047151;28;20033;-74
2023/05/09 04:45:52;;;;;;;18.92;10.77;;;;;;;;;;5044803;28;20029;-73
2023/05/09 04:48:17;;;;;;;16.65;10.55;;;;;;;;;;5047948;28;20044;-74
2023/05/09 04:50:43;;;;;;;17.65;11.05;;;;;;;;;;5042940;28;20434;-74
2023/05/09 04:53:09;;;;;;;17.50;10.50;;;;;;;;;;5041983;28;20022;-73
2023/05/09 04:55:35;;;;;;;17.05;10.23;;;;;;;;;;5041044;28;20112;-73
2023/05/09 04:58:00;;;;;;;19.88;11.52;;;;;;;;;;5056061;28;20575;-74
2023/05/09 05:00:26;;;;;;;16.27;11.05;;;;;;;;;;5031382;28;21510;-73
2023/05/09 05:02:51;;;;;;;15.90;10.05;;;;;;;;;;5033112;28;20025;-74
2023/05/09 05:05:16;;;;;;;18.05;10.30;;;;;;;;;;5042693;28;20067;-73
2023/05/09 05:07:42;;;;;;;18.48;10.80;;;;;;;;;;5045909;28;20059;-73
2023/05/09 05:10:08;;;;;;;17.38;10.02;;;;;;;;;;5050029;28;20025;-73
2023/05/09 05:12:33;;;;;;;20.27;11.38;;;;;;;;;;5051642;28;20386;-73
2023/05/09 05:14:58;;;;;;;16.27;10.18;;;;;;;;;;5048946;28;20505;-73
2023/05/09 05:17:24;;;;;;;15.43;9.52;;;;;;;;;;5041898;28;20469;-74
2023/05/09 05:19:49;;;;;;;16.27;9.95;;;;;;;;;;5039980;28;20021;-73
2023/05/09 05:22:15;;;;;;;16.17;10.35;;;;;;;;;;5043674;28;20021;-74
2023/05/09 05:24:40;;;;;;;15.05;9.63;;;;;;;;;;5049322;28;20029;-73
2023/05/09 05:27:05;;;;;;;16.55;10.57;;;;;;;;;;5045881;28;20028;-73
2023/05/09 05:29:31;;;;;;;16.15;9.60;;;;;;;;;;5060894;28;20119;-74
2023/05/09 05:31:56;;;;;;;15.30;10.43;;;;;;;;;;5046724;28;20029;-75
2023/05/09 05:34:21;;;;;;;14.35;9.15;;;;;;;;;;5048233;28;20518;-73
2023/05/09 05:36:47;;;;;;;16.90;9.80;;;;;;;;;;5046289;28;20108;-74
2023/05/09 05:39:12;;;;;;;14.90;9.88;;;;;;;;;;5045628;28;20481;-74
2023/05/09 05:41:37;;;;;;;12.95;9.02;;;;;;;;;;5053238;28;20020;-74
2023/05/09 05:44:03;;;;;;;13.45;9.43;;;;;;;;;;5039783;28;20056;-74
2023/05/09 05:46:28;;;;;;;15.30;9.57;;;;;;;;;;5051526;28;20063;-74
2023/05/09 05:48:54;;;;;;;14.35;8.90;;;;;;;;;;5042446;28;20021;-73
2023/05/09 05:51:19;;;;;;;12.07;8.18;;;;;;;;;;5049395;28;20025;-74
2023/05/09 05:53:44;;;;;;;16.30;10.07;;;;;;;;;;5045653;28;20052;-74
2023/05/09 05:56:10;;;;;;;13.80;8.93;;;;;;;;;;5047828;28;20028;-73
2023/05/09 05:58:35;;;;;;;16.15;10.13;;;;;;;;;;5047563;28;20102;-73
2023/05/09 06:01:01;;;;;;;13.65;8.50;;;;;;;;;;5042789;28;20405;-73
2023/05/09 06:03:26;;;;;;;12.75;8.27;;;;;;;;;;5038766;28;20485;-73
2023/05/09 06:05:51;;;;;;;13.80;9.18;;;;;;;;;;5040230;28;20851;-73
2023/05/09 06:08:17;;;;;;;15.68;9.55;;;;;;;;;;5042611;28;20095;-73
2023/05/09 06:10:42;;;;;;;13.63;9.43;;;;;;;;;;5043527;28;20032;-74
2023/05/09 06:13:07;;;;;;;13.30;9.07;;;;;;;;;;5041265;28;20029;-73
2023/05/09 06:15:33;;;;;;;11.18;7.32;;;;;;;;;;5042051;28;20017;-74
2023/05/09 06:17:58;;;;;;;13.13;9.10;;;;;;;;;;5038467;28;20107;-73
2023/05/09 06:20:24;;;;;;;15.32;8.52;;;;;;;;;;5051958;28;20036;-74
2023/05/09 06:22:49;;;;;;;10.32;7.32;;;;;;;;;;5049428;28;20025;-73
2023/05/09 06:25:14;;;;;;;11.27;7.57;;;;;;;;;;5047771;28;20469;-73
2023/05/09 06:27:40;;;;;;;12.98;8.32;;;;;;;;;;5047950;28;20569;-74
2023/05/09 06:30:07;;;;;;;12.65;7.95;;;;;;;;;;5045410;28;20029;-73
2023/05/09 06:32:32;;;;;;;11.95;8.27;;;;;;;;;;5049508;28;20036;-73
2023/05/09 06:34:57;;;;;;;13.02;8.65;;;;;;;;;;5049276;28;20037;-73
2023/05/09 06:37:23;;;;;;;14.77;7.80;;;;;;;;;;5046061;28;20040;-73
2023/05/09 06:39:49;;;;;;;12.63;8.55;;;;;;;;;;5040849;28;20058;-73
2023/05/09 06:42:15;;;;;;;15.60;9.05;;;;;;;;;;5047720;28;20060;-74
2023/05/09 06:44:42;;;;;;;12.77;8.85;;;;;;;;;;5041875;28;20113;-73
2023/05/09 06:47:08;;;;;;;11.98;8.02;;;;;;;;;;5029483;28;20028;-73
2023/05/09 06:49:33;;;;;;;11.35;8.27;;;;;;;;;;5043204;28;20029;-73
2023/05/09 06:51:58;;;;;;;12.05;8.80;;;;;;;;;;5044906;28;20033;-73
2023/05/09 06:54:23;;;;;;;12.38;9.00;;;;;;;;;;5041981;28;20052;-73
2023/05/09 06:56:49;;;;;;;13.20;8.63;;;;;;;;;;5048124;28;20032;-73
2023/05/09 06:59:15;;;;;;;13.82;8.48;;;;;;;;;;5043037;28;20075;-73
2023/05/09 07:01:41;;;;;;;12.20;7.95;;;;;;;;;;5039341;28;20040;-73
2023/05/09 07:04:06;;;;;;;14.23;8.65;;;;;;;;;;5043321;28;20025;-73
2023/05/09 07:06:32;;;;;;;11.90;8.10;;;;;;;;;;5051073;28;20060;-73
2023/05/09 07:08:57;;;;;;;13.85;9.00;;;;;;;;;;5042095;28;20022;-74
2023/05/09 07:11:22;;;;;;;10.23;7.00;;;;;;;;;;5052333;28;20017;-73
2023/05/09 07:13:48;;;;;;;10.90;7.22;;;;;;;;;;5041146;28;20045;-73
2023/05/09 07:16:14;;;;;;;12.25;8.80;;;;;;;;;;5047778;28;20027;-73
2023/05/09 07:18:39;;;;;;;13.35;9.43;;;;;;;;;;5046607;28;20037;-73
2023/05/09 07:21:05;;;;;;;10.95;7.45;;;;;;;;;;5048430;28;20404;-74
2023/05/09 07:23:30;;;;;;;13.15;8.90;;;;;;;;;;5046740;28;20036;-73
2023/05/09 07:25:57;;;;;;;12.25;8.63;;;;;;;;;;5050261;28;20397;-74
2023/05/09 07:28:23;;;;;;;11.70;8.40;;;;;;;;;;5064698;28;20053;-74
2023/05/09 07:30:48;;;;;;;13.43;8.77;;;;;;;;;;5050235;28;20063;-74
2023/05/09 07:33:13;;;;;;;13.32;9.15;;;;;;;;;;5052758;28;20017;-74
2023/05/09 07:35:39;;;;;;;15.00;9.73;;;;;;;;;;5045425;28;20041;-74
2023/05/09 07:38:05;;;;;;;11.07;7.55;;;;;;;;;;5046682;28;20123;-74
2023/05/09 07:40:32;;;;;;;12.90;8.85;;;;;;;;;;5042473;28;20378;-74
2023/05/09 07:42:57;;;;;;;13.77;9.38;;;;;;;;;;5045810;28;20026;-74
2023/05/09 07:45:23;;;;;;;13.05;9.27;;;;;;;;;;5051022;28;20047;-74
2023/05/09 07:47:48;;;;;;;11.77;8.18;;;;;;;;;;5048599;28;20027;-74
2023/05/09 07:50:14;;;;;;;12.50;8.13;;;;;;;;;;5041571;28;20037;-74
2023/05/09 07:52:39;;;;;;;10.82;7.30;;;;;;;;;;5047147;28;20021;-73
2023/05/09 07:55:05;;;;;;;14.50;8.63;;;;;;;;;;5047546;28;20176;-73
2023/05/09 07:57:30;;;;;;;10.32;7.32;;;;;;;;;;5051367;28;20040;-74
2023/05/09 07:59:56;;;;;;;11.48;8.02;;;;;;;;;;5043566;28;20370;-74
2023/05/09 08:02:21;;;;;;;12.85;7.43;;;;;;;;;;5046566;28;20024;-73
2023/05/09 08:04:49;;;;;;;10.70;8.07;;;;;;;;;;5041543;28;20057;-74
2023/05/09 08:07:15;;;;;;;11.13;7.43;;;;;;;;;;5047290;28;20512;-73
2023/05/09 08:09:40;;;;;;;10.68;7.28;;;;;;;;;;5051930;28;20052;-73
2023/05/09 08:12:06;;;;;;;10.48;7.30;;;;;;;;;;5050445;28;20025;-74
2023/05/09 08:14:31;;;;;;;10.15;6.82;;;;;;;;;;5044568;28;20048;-73
2023/05/09 08:16:56;;;;;;;9.68;6.22;;;;;;;;;;5048403;28;20492;-73
2023/05/09 08:19:24;;;;;;;8.68;6.70;;;;;;;;;;5047003;28;20024;-74
2023/05/09 08:21:50;;;;;;;8.43;6.03;;;;;;;;;;5050077;28;20035;-73
2023/05/09 08:24:15;;;;;;;11.50;6.93;;;;;;;;;;5047180;28;20021;-74
2023/05/09 08:26:41;;;;;;;7.50;5.75;;;;;;;;;;5048669;28;20029;-74
2023/05/09 08:29:06;;;;;;;10.27;6.65;;;;;;;;;;5041809;28;20025;-74
2023/05/09 08:31:31;;;;;;;9.30;5.90;;;;;;;;;;5041464;28;20480;-74
2023/05/09 08:33:56;;;;;;;7.82;5.68;;;;;;;;;;5045460;28;20032;-74
2023/05/09 08:36:22;;;;;;;8.70;5.75;;;;;;;;;;5050383;28;20032;-73
2023/05/09 08:38:48;;;;;;;6.97;5.00;;;;;;;;;;5048076;28;20029;-73
2023/05/09 08:41:15;;;;;;;7.20;5.45;;;;;;;;;;5052465;28;20029;-73
2023/05/09 08:43:40;;;;;;;7.20;4.95;;;;;;;;;;5048528;28;20025;-74
2023/05/09 08:46:08;;;;;;;5.97;4.35;;;;;;;;;;5050567;28;20390;-73
2023/05/09 08:48:37;;;;;;;9.43;5.20;;;;;;;;;;5047594;28;20071;-73
2023/05/09 08:51:06;;;;;;;8.57;4.60;;;;;;;;;;5043081;28;20025;-74
2023/05/09 08:53:32;;;;;;;5.60;4.20;;;;;;;;;;5050915;28;20036;-73
2023/05/09 08:55:59;;;;;;;6.22;4.30;;;;;;;;;;5051883;28;20486;-73
2023/05/09 08:58:24;;;;;;;7.65;5.22;;;;;;;;;;5049405;28;20021;-74
2023/05/09 09:00:49;;;;;;;5.50;4.15;;;;;;;;;;5046504;28;20035;-74
2023/05/09 09:03:16;;;;;;;5.50;4.07;;;;;;;;;;5046723;28;20026;-74
2023/05/09 09:05:43;;;;;;;5.65;4.15;;;;;;;;;;5046913;28;20043;-74
2023/05/09 09:08:09;;;;;;;6.40;4.43;;;;;;;;;;5049630;28;20032;-74
2023/05/09 09:10:40;;;;;;;7.10;5.00;;;;;;;;;;5049846;28;20477;-74
2023/05/09 09:13:07;;;;;;;6.93;4.90;;;;;;;;;;5047448;28;20029;-74
2023/05/09 09:15:37;;;;;;;6.53;4.63;;;;;;;;;;5046951;28;20037;-74
2023/05/09 09:18:08;;;;;;;6.63;4.43;;;;;;;;;;5035913;28;20478;-74
2023/05/09 09:20:39;;;;;;;8.25;4.45;;;;;;;;;;5046852;28;20033;-73
2023/05/09 09:23:09;;;;;;;7.75;4.75;;;;;;;;;;5048588;28;20029;-73
2023/05/09 09:25:35;;;;;;;5.95;4.38;;;;;;;;;;5047706;28;20028;-74
2023/05/09 09:28:00;;;;;;;6.70;4.85;;;;;;;;;;5050489;28;20029;-73
2023/05/09 09:30:25;;;;;;;6.95;4.70;;;;;;;;;;5037445;28;20041;-73
2023/05/09 09:32:51;;;;;;;5.72;3.67;;;;;;;;;;5040869;28;20108;-74
2023/05/09 09:35:16;;;;;;;6.55;4.93;;;;;;;;;;5047690;28;20032;-74
2023/05/09 09:37:42;;;;;;;7.03;4.40;;;;;;;;;;5046858;28;20026;-73
2023/05/09 09:40:09;;;;;;;6.65;4.88;;;;;;;;;;5048727;28;20029;-73
2023/05/09 09:42:42;;;;;;;7.88;4.75;;;;;;;;;;5043850;28;20064;-73
2023/05/09 09:45:15;;;;;;;6.63;5.10;;;;;;;;;;5045722;28;20047;-73
2023/05/09 09:47:42;;;;;;;6.88;4.80;;;;;;;;;;5044898;28;20032;-74
2023/05/09 09:50:21;;;;;;;5.28;3.75;;;;;;;;;;5050452;28;20039;-74
2023/05/09 09:52:54;;;;;;;7.38;4.78;;;;;;;;;;5049140;28;20026;-73
2023/05/09 09:55:22;;;;;;;8.05;4.72;;;;;;;;;;5051737;28;20094;-73
2023/05/09 09:57:48;;;;;;;5.60;4.03;;;;;;;;;;5045891;28;20076;-73
2023/05/09 10:00:15;;;;;;;6.93;4.45;;;;;;;;;;5041371;28;20017;-73
2023/05/09 10:02:48;;;;;;;6.47;4.20;;;;;;;;;;5039464;28;20485;-73
2023/05/09 10:05:27;;;;;;;4.90;3.75;;;;;;;;;;5041614;28;20033;-73
2023/05/09 10:07:58;;;;;;;5.20;4.00;;;;;;;;;;5041472;28;20029;-74
2023/05/09 10:10:29;;;;;;;5.53;3.80;;;;;;;;;;5041030;28;20029;-73
2023/05/09 10:13:01;;;;;;;4.93;3.53;;;;;;;;;;5046176;28;20029;-74
2023/05/09 10:15:28;;;;;;;5.30;3.55;;;;;;;;;;5036156;28;20041;-73
2023/05/09 10:17:56;;;;;;;5.88;3.75;;;;;;;;;;5047190;28;20129;-73
2023/05/09 10:20:22;;;;;;;6.20;3.13;;;;;;;;;;5041546;28;20037;-74
2023/05/09 10:22:49;;;;;;;6.60;3.53;;;;;;;;;;5044080;28;20020;-73
2023/05/09 10:25:25;;;;;;;5.10;3.67;;;;;;;;;;5050285;28;20474;-73
2023/05/09 10:27:53;;;;;;;7.32;3.63;;;;;;;;;;5038985;28;20504;-74
2023/05/09 10:30:25;;;;;;;4.57;3.45;;;;;;;;;;5035468;28;20052;-74
2023/05/09 10:33:01;;;;;;;5.25;3.97;;;;;;;;;;5038738;28;20436;-74
2023/05/09 10:35:31;;;;;;;5.15;3.40;;;;;;;;;;5044246;28;20107;-73
2023/05/09 10:38:00;;;;;;;4.55;3.00;;;;;;;;;;5038204;28;20414;-74
2023/05/09 10:40:27;;;;;;;5.20;3.10;;;;;;;;;;5045317;28;20036;-74
2023/05/09 10:42:52;;;;;;;5.20;3.05;;;;;;;;;;5040074;28;20025;-74
2023/05/09 10:45:19;;;;;;;4.50;3.67;;;;;;;;;;5048709;28;20031;-74
2023/05/09 10:47:49;;;;;;;5.68;3.63;;;;;;;;;;5048006;28;20497;-74
2023/05/09 10:50:15;;;;;;;5.03;3.22;;;;;;;;;;5048119;28;20386;-74
2023/05/09 10:53:02;;;;;;;5.75;3.25;;;;;;;;;;5040746;28;20033;-74
2023/05/09 10:55:46;;;;;;;5.53;3.33;;;;;;;;;;5047416;28;20021;-74
2023/05/09 10:58:25;;;;;;;4.78;3.25;;;;;;;;;;5037295;28;20067;-74
2023/05/09 11:00:52;;;;;;;5.85;3.58;;;;;;;;;;5036613;28;20016;-74
2023/05/09 11:03:20;;;;;;;5.22;3.67;;;;;;;;;;5041277;28;20418;-74
2023/05/09 11:05:47;;;;;;;5.20;3.55;;;;;;;;;;5043904;28;20075;-74
2023/05/09 11:08:26;;;;;;;4.75;3.30;;;;;;;;;;5038816;28;20079;-74
2023/05/09 11:11:04;;;;;;;5.05;3.25;;;;;;;;;;5036900;28;20034;-74
2023/05/09 11:13:32;;;;;;;4.88;3.10;;;;;;;;;;5042062;28;20043;-74
2023/05/09 11:16:00;;;;;;;5.95;3.97;;;;;;;;;;5045171;28;20047;-74
2023/05/09 11:18:27;;;;;;;4.72;3.40;;;;;;;;;;5047743;28;20036;-74
2023/05/09 11:20:53;;;;;;;5.35;4.05;;;;;;;;;;5049128;28;20125;-74
2023/05/09 11:23:20;;;;;;;5.85;3.78;;;;;;;;;;5046974;28;20052;-73
2023/05/09 11:25:46;;;;;;;6.22;4.28;;;;;;;;;;5049103;28;20095;-74
2023/05/09 11:28:26;;;;;;;5.57;3.75;;;;;;;;;;5051089;28;20039;-74
2023/05/09 11:30:52;;;;;;;6.32;3.90;;;;;;;;;;5039230;28;20428;-75
2023/05/09 11:33:28;;;;;;;8.00;3.92;;;;;;;;;;5045712;28;20021;-74
2023/05/09 11:36:17;;;;;;;5.40;3.88;;;;;;;;;;5048843;28;20021;-74
2023/05/09 11:38:43;;;;;;;5.60;3.75;;;;;;;;;;5043164;28;20031;-75
2023/05/09 11:41:08;;;;;;;5.20;3.42;;;;;;;;;;5038262;28;20025;-74
2023/05/09 11:43:35;;;;;;;6.13;3.55;;;;;;;;;;5037865;28;20084;-75
2023/05/09 11:46:01;;;;;;;6.68;3.65;;;;;;;;;;5040726;28;20055;-74
2023/05/09 11:48:27;;;;;;;5.85;3.78;;;;;;;;;;5049388;28;20390;-74
2023/05/09 11:50:52;;;;;;;4.30;3.35;;;;;;;;;;5044802;28;20027;-75
2023/05/09 11:53:17;;;;;;;6.30;3.58;;;;;;;;;;5045075;28;20377;-74
2023/05/09 11:55:43;;;;;;;4.70;3.55;;;;;;;;;;5045216;28;20377;-75
2023/05/09 11:58:08;;;;;;;5.22;3.72;;;;;;;;;;5046465;28;20035;-74
2023/05/09 12:00:36;;;;;;;4.75;3.30;;;;;;;;;;5045650;28;20025;-75
2023/05/09 12:03:04;;;;;;;4.80;3.40;;;;;;;;;;5050031;28;20048;-74
2023/05/09 12:05:30;;;;;;;4.63;3.30;;;;;;;;;;5045130;28;20025;-74
2023/05/09 12:08:03;;;;;;;4.63;3.03;;;;;;;;;;5042120;28;20473;-75
2023/05/09 12:10:28;;;;;;;4.07;2.58;;;;;;;;;;5050626;28;20434;-74
2023/05/09 12:12:56;;;;;;;4.63;2.95;;;;;;;;;;5050526;28;20123;-75
2023/05/09 12:15:22;;;;;;;3.55;2.70;;;;;;;;;;5049662;28;20494;-75
2023/05/09 12:18:00;;;;;;;4.40;3.10;;;;;;;;;;5053660;28;20025;-75
2023/05/09 12:20:26;;;;;;;5.07;2.70;;;;;;;;;;5048767;28;20032;-75
2023/05/09 12:22:52;;;;;;;4.00;2.70;;;;;;;;;;5042264;28;20385;-75
2023/05/09 12:25:18;;;;;;;3.38;2.47;;;;;;;;;;5050280;28;20488;-75
2023/05/09 12:27:43;;;;;;;4.53;2.60;;;;;;;;;;5048833;28;20116;-75
2023/05/09 12:30:09;;;;;;;3.90;2.40;;;;;;;;;;5045224;28;20033;-75
2023/05/09 12:32:36;;;;;;;3.25;2.35;;;;;;;;;;5053253;28;20393;-74
2023/05/09 12:35:02;;;;;;;3.25;2.35;;;;;;;;;;5035890;28;20033;-74
2023/05/09 12:37:29;;;;;;;3.67;2.35;;;;;;;;;;5045376;28;20036;-74
2023/05/09 12:40:07;;;;;;;3.75;2.70;;;;;;;;;;5042454;28;20067;-75
2023/05/09 12:42:34;;;;;;;3.78;2.50;;;;;;;;;;5043956;28;20485;-75
2023/05/09 12:45:06;;;;;;;3.75;2.40;;;;;;;;;;5046082;28;20393;-75
2023/05/09 12:47:32;;;;;;;3.80;2.60;;;;;;;;;;5037927;28;20040;-75
2023/05/09 12:50:01;;;;;;;5.15;2.70;;;;;;;;;;5050327;28;20485;-74
2023/05/09 12:52:38;;;;;;;4.55;2.90;;;;;;;;;;5052794;28;20376;-75
2023/05/09 12:55:12;;;;;;;3.75;2.30;;;;;;;;;;5040858;28;20186;-75
2023/05/09 12:57:38;;;;;;;4.05;2.85;;;;;;;;;;5051081;28;20017;-74
2023/05/09 13:00:08;;;;;;;4.30;2.70;;;;;;;;;;5046497;28;20483;-75
2023/05/09 13:02:40;;;;;;;3.38;2.47;;;;;;;;;;5051570;28;20032;-74
2023/05/09 13:05:14;;;;;;;3.92;2.80;;;;;;;;;;5042874;28;20100;-75
2023/05/09 13:07:44;;;;;;;4.72;2.83;;;;;;;;;;5064126;28;20056;-75
2023/05/09 13:10:13;;;;;;;5.05;2.92;;;;;;;;;;5049567;28;20025;-74
2023/05/09 13:12:43;;;;;;;4.72;3.20;;;;;;;;;;5047770;28;20599;-74
2023/05/09 13:15:09;;;;;;;4.85;3.15;;;;;;;;;;5049393;28;20028;-75
2023/05/09 13:17:35;;;;;;;4.18;2.90;;;;;;;;;;5044311;28;20025;-75
2023/05/09 13:20:00;;;;;;;4.03;3.10;;;;;;;;;;5047792;28;20017;-74
2023/05/09 13:22:26;;;;;;;4.22;2.88;;;;;;;;;;5049691;28;20029;-75
2023/05/09 13:24:51;;;;;;;3.92;2.60;;;;;;;;;;5041109;28;20082;-75
2023/05/09 13:27:16;;;;;;;4.53;2.80;;;;;;;;;;5039309;28;20477;-74
2023/05/09 13:29:42;;;;;;;4.50;3.17;;;;;;;;;;5036794;28;20036;-74
2023/05/09 13:32:07;;;;;;;3.72;2.65;;;;;;;;;;5042129;28;20025;-75
2023/05/09 13:34:33;;;;;;;4.35;2.90;;;;;;;;;;5034830;28;20083;-75
2023/05/09 13:36:58;;;;;;;4.65;2.83;;;;;;;;;;5041714;28;20033;-75
2023/05/09 13:39:23;;;;;;;4.15;3.15;;;;;;;;;;5040379;28;20032;-74
2023/05/09 13:41:51;;;;;;;3.88;2.75;;;;;;;;;;5051040;28;20035;-75
2023/05/09 13:44:17;;;;;;;3.95;2.55;;;;;;;;;;5048778;28;20028;-75
2023/05/09 13:46:43;;;;;;;3.88;2.70;;;;;;;;;;5043554;28;20044;-75
2023/05/09 13:49:08;;;;;;;3.17;2.45;;;;;;;;;;5046128;28;20067;-75
2023/05/09 13:51:33;;;;;;;4.47;3.05;;;;;;;;;;5044579;28;20497;-75
2023/05/09 13:53:59;;;;;;;3.67;2.67;;;;;;;;;;5044493;28;20021;-75
2023/05/09 13:56:25;;;;;;;4.95;3.20;;;;;;;;;;5048389;28;20028;-75
2023/05/09 13:58:50;;;;;;;3.63;2.63;;;;;;;;;;5045385;28;20025;-74
2023/05/09 14:01:15;;;;;;;5.18;2.80;;;;;;;;;;5041993;28;20551;-74
2023/05/09 14:03:41;;;;;;;3.90;3.00;;;;;;;;;;5037322;28;20052;-74
2023/05/09 14:06:08;;;;;;;4.07;2.78;;;;;;;;;;5047296;28;20082;-75
2023/05/09 14:08:33;;;;;;;6.47;3.35;;;;;;;;;;5045396;28;20021;-74
2023/05/09 14:10:59;;;;;;;4.43;2.40;;;;;;;;;;5039325;28;20033;-74
2023/05/09 14:13:24;;;;;;;4.85;3.00;;;;;;;;;;5034475;28;20029;-74
2023/05/09 14:15:49;;;;;;;4.47;3.10;;;;;;;;;;5041934;28;20028;-75
2023/05/09 14:18:15;;;;;;;4.40;2.70;;;;;;;;;;5041580;28;20473;-74
2023/05/09 14:20:41;;;;;;;3.70;2.60;;;;;;;;;;5050035;28;20031;-74
2023/05/09 14:23:06;;;;;;;4.38;3.20;;;;;;;;;;5046346;28;20032;-74
2023/05/09 14:25:31;;;;;;;3.72;2.72;;;;;;;;;;5042161;28;20048;-74
2023/05/09 14:27:58;;;;;;;3.88;2.50;;;;;;;;;;5049209;28;20021;-74
2023/05/09 14:30:25;;;;;;;4.18;2.70;;;;;;;;;;5047154;28;20112;-75